sensor_id;sensor_type;location;lat;lon;timestamp;P1;durP1;ratioP1;P2;durP2;ratioP2
70052;SDS011;57398;52.032;4.376;2022-07-23T00:00:31;6.50;;;2.30;;
70052;SDS011;57398;52.032;4.376;2022-07-23T00:03:04;6.07;;;1.92;;
70052;SDS011;57398;52.032;4.376;2022-07-23T00:05:32;6.97;;;2.22;;
70052;SDS011;57398;52.032;4.376;2022-07-23T00:08:02;7.97;;;2.20;;
70052;SDS011;57398;52.032;4.376;2022-07-23T00:10:29;5.30;;;2.10;;
70052;SDS011;57398;52.032;4.376;2022-07-23T00:12:57;5.38;;;1.98;;
70052;SDS011;57398;52.032;4.376;2022-07-23T00:15:24;5.35;;;2.08;;
70052;SDS011;57398;52.032;4.376;2022-07-23T00:17:52;5.93;;;2.17;;
70052;SDS011;57398;52.032;4.376;2022-07-23T00:20:19;4.97;;;2.23;;
70052;SDS011;57398;52.032;4.376;2022-07-23T00:22:47;4.75;;;2.00;;
70052;SDS011;57398;52.032;4.376;2022-07-23T00:25:16;4.57;;;2.17;;
70052;SDS011;57398;52.032;4.376;2022-07-23T00:27:55;4.72;;;1.85;;
70052;SDS011;57398;52.032;4.376;2022-07-23T00:30:22;5.45;;;2.22;;
70052;SDS011;57398;52.032;4.376;2022-07-23T00:32:51;6.50;;;2.23;;
70052;SDS011;57398;52.032;4.376;2022-07-23T00:35:22;6.05;;;2.20;;
70052;SDS011;57398;52.032;4.376;2022-07-23T00:37:50;5.18;;;2.20;;
70052;SDS011;57398;52.032;4.376;2022-07-23T00:40:19;5.25;;;2.20;;
70052;SDS011;57398;52.032;4.376;2022-07-23T00:42:46;5.95;;;2.80;;
70052;SDS011;57398;52.032;4.376;2022-07-23T00:45:14;6.13;;;2.40;;
70052;SDS011;57398;52.032;4.376;2022-07-23T00:47:41;5.53;;;2.50;;
70052;SDS011;57398;52.032;4.376;2022-07-23T00:50:09;6.13;;;2.53;;
70052;SDS011;57398;52.032;4.376;2022-07-23T00:52:37;5.07;;;2.55;;
70052;SDS011;57398;52.032;4.376;2022-07-23T00:55:05;6.97;;;2.60;;
70052;SDS011;57398;52.032;4.376;2022-07-23T00:57:35;6.80;;;2.60;;
70052;SDS011;57398;52.032;4.376;2022-07-23T01:00:03;6.40;;;2.75;;
70052;SDS011;57398;52.032;4.376;2022-07-23T01:02:31;5.65;;;2.60;;
70052;SDS011;57398;52.032;4.376;2022-07-23T01:04:58;6.15;;;2.35;;
70052;SDS011;57398;52.032;4.376;2022-07-23T01:07:26;6.60;;;2.72;;
70052;SDS011;57398;52.032;4.376;2022-07-23T01:09:54;6.77;;;2.67;;
70052;SDS011;57398;52.032;4.376;2022-07-23T01:12:21;5.20;;;2.60;;
70052;SDS011;57398;52.032;4.376;2022-07-23T01:14:54;7.13;;;2.80;;
70052;SDS011;57398;52.032;4.376;2022-07-23T01:17:22;5.35;;;2.35;;
70052;SDS011;57398;52.032;4.376;2022-07-23T01:19:49;7.00;;;2.75;;
70052;SDS011;57398;52.032;4.376;2022-07-23T01:22:17;5.70;;;2.50;;
70052;SDS011;57398;52.032;4.376;2022-07-23T01:24:46;7.57;;;2.47;;
70052;SDS011;57398;52.032;4.376;2022-07-23T01:27:14;6.35;;;2.47;;
70052;SDS011;57398;52.032;4.376;2022-07-23T01:29:44;7.65;;;2.45;;
70052;SDS011;57398;52.032;4.376;2022-07-23T01:32:11;6.78;;;2.58;;
70052;SDS011;57398;52.032;4.376;2022-07-23T01:34:39;7.13;;;2.60;;
70052;SDS011;57398;52.032;4.376;2022-07-23T01:37:07;6.85;;;2.28;;
70052;SDS011;57398;52.032;4.376;2022-07-23T01:39:34;7.15;;;2.30;;
70052;SDS011;57398;52.032;4.376;2022-07-23T01:42:03;7.53;;;2.60;;
70052;SDS011;57398;52.032;4.376;2022-07-23T01:44:31;6.70;;;2.60;;
70052;SDS011;57398;52.032;4.376;2022-07-23T01:46:59;6.70;;;2.50;;
70052;SDS011;57398;52.032;4.376;2022-07-23T01:49:26;8.77;;;2.58;;
70052;SDS011;57398;52.032;4.376;2022-07-23T01:51:54;6.63;;;2.80;;
70052;SDS011;57398;52.032;4.376;2022-07-23T01:54:28;7.22;;;3.15;;
70052;SDS011;57398;52.032;4.376;2022-07-23T01:56:55;6.68;;;2.90;;
70052;SDS011;57398;52.032;4.376;2022-07-23T01:59:24;7.07;;;2.50;;
70052;SDS011;57398;52.032;4.376;2022-07-23T02:01:52;7.22;;;3.20;;
70052;SDS011;57398;52.032;4.376;2022-07-23T02:04:20;7.22;;;2.70;;
70052;SDS011;57398;52.032;4.376;2022-07-23T02:06:48;7.15;;;2.90;;
70052;SDS011;57398;52.032;4.376;2022-07-23T02:09:15;5.72;;;2.80;;
70052;SDS011;57398;52.032;4.376;2022-07-23T02:11:43;7.00;;;3.00;;
70052;SDS011;57398;52.032;4.376;2022-07-23T02:14:10;8.07;;;2.60;;
70052;SDS011;57398;52.032;4.376;2022-07-23T02:16:39;7.15;;;2.85;;
70052;SDS011;57398;52.032;4.376;2022-07-23T02:19:07;8.30;;;2.90;;
70052;SDS011;57398;52.032;4.376;2022-07-23T02:21:35;6.97;;;2.95;;
70052;SDS011;57398;52.032;4.376;2022-07-23T02:24:02;8.53;;;3.13;;
70052;SDS011;57398;52.032;4.376;2022-07-23T02:26:30;7.72;;;2.97;;
70052;SDS011;57398;52.032;4.376;2022-07-23T02:29:00;5.85;;;2.97;;
70052;SDS011;57398;52.032;4.376;2022-07-23T02:31:29;6.70;;;2.92;;
70052;SDS011;57398;52.032;4.376;2022-07-23T02:33:58;8.10;;;2.92;;
70052;SDS011;57398;52.032;4.376;2022-07-23T02:36:26;7.47;;;3.30;;
70052;SDS011;57398;52.032;4.376;2022-07-23T02:38:54;8.35;;;2.95;;
70052;SDS011;57398;52.032;4.376;2022-07-23T02:41:21;9.38;;;2.95;;
70052;SDS011;57398;52.032;4.376;2022-07-23T02:43:49;7.40;;;2.88;;
70052;SDS011;57398;52.032;4.376;2022-07-23T02:46:17;6.32;;;2.97;;
70052;SDS011;57398;52.032;4.376;2022-07-23T02:48:45;6.27;;;2.80;;
70052;SDS011;57398;52.032;4.376;2022-07-23T02:51:14;8.98;;;3.10;;
70052;SDS011;57398;52.032;4.376;2022-07-23T02:53:41;8.50;;;2.92;;
70052;SDS011;57398;52.032;4.376;2022-07-23T02:56:09;7.53;;;3.00;;
70052;SDS011;57398;52.032;4.376;2022-07-23T02:58:36;7.10;;;3.13;;
70052;SDS011;57398;52.032;4.376;2022-07-23T03:01:05;6.20;;;2.93;;
70052;SDS011;57398;52.032;4.376;2022-07-23T03:03:33;7.88;;;3.20;;
70052;SDS011;57398;52.032;4.376;2022-07-23T03:06:00;6.70;;;3.05;;
70052;SDS011;57398;52.032;4.376;2022-07-23T03:08:29;7.57;;;3.05;;
70052;SDS011;57398;52.032;4.376;2022-07-23T03:10:57;9.00;;;3.08;;
70052;SDS011;57398;52.032;4.376;2022-07-23T03:13:24;8.87;;;2.80;;
70052;SDS011;57398;52.032;4.376;2022-07-23T03:15:52;7.47;;;2.95;;
70052;SDS011;57398;52.032;4.376;2022-07-23T03:18:19;6.18;;;2.80;;
70052;SDS011;57398;52.032;4.376;2022-07-23T03:20:47;6.45;;;2.90;;
70052;SDS011;57398;52.032;4.376;2022-07-23T03:23:15;6.03;;;2.60;;
70052;SDS011;57398;52.032;4.376;2022-07-23T03:25:44;6.50;;;2.70;;
70052;SDS011;57398;52.032;4.376;2022-07-23T03:28:19;7.70;;;2.83;;
70052;SDS011;57398;52.032;4.376;2022-07-23T03:30:47;7.18;;;2.88;;
70052;SDS011;57398;52.032;4.376;2022-07-23T03:33:14;8.82;;;2.90;;
70052;SDS011;57398;52.032;4.376;2022-07-23T03:35:43;6.78;;;2.97;;
70052;SDS011;57398;52.032;4.376;2022-07-23T03:38:13;8.83;;;3.30;;
70052;SDS011;57398;52.032;4.376;2022-07-23T03:40:40;7.35;;;3.30;;
70052;SDS011;57398;52.032;4.376;2022-07-23T03:43:09;7.78;;;3.10;;
70052;SDS011;57398;52.032;4.376;2022-07-23T03:45:37;8.93;;;3.15;;
70052;SDS011;57398;52.032;4.376;2022-07-23T03:48:04;8.13;;;3.42;;
70052;SDS011;57398;52.032;4.376;2022-07-23T03:50:32;8.50;;;3.17;;
70052;SDS011;57398;52.032;4.376;2022-07-23T03:53:00;8.20;;;3.20;;
70052;SDS011;57398;52.032;4.376;2022-07-23T03:55:28;7.55;;;3.17;;
70052;SDS011;57398;52.032;4.376;2022-07-23T03:57:55;8.50;;;3.65;;
70052;SDS011;57398;52.032;4.376;2022-07-23T04:00:24;9.43;;;3.25;;
70052;SDS011;57398;52.032;4.376;2022-07-23T04:02:52;6.93;;;3.00;;
70052;SDS011;57398;52.032;4.376;2022-07-23T04:05:19;8.00;;;3.40;;
70052;SDS011;57398;52.032;4.376;2022-07-23T04:07:47;9.05;;;3.30;;
70052;SDS011;57398;52.032;4.376;2022-07-23T04:10:14;8.95;;;3.28;;
70052;SDS011;57398;52.032;4.376;2022-07-23T04:12:42;7.72;;;3.17;;
70052;SDS011;57398;52.032;4.376;2022-07-23T04:15:09;7.47;;;3.30;;
70052;SDS011;57398;52.032;4.376;2022-07-23T04:17:38;7.43;;;3.10;;
70052;SDS011;57398;52.032;4.376;2022-07-23T04:20:06;7.95;;;3.22;;
70052;SDS011;57398;52.032;4.376;2022-07-23T04:22:33;8.13;;;3.55;;
70052;SDS011;57398;52.032;4.376;2022-07-23T04:25:01;8.82;;;3.40;;
70052;SDS011;57398;52.032;4.376;2022-07-23T04:27:29;7.30;;;3.50;;
70052;SDS011;57398;52.032;4.376;2022-07-23T04:29:59;8.65;;;3.70;;
70052;SDS011;57398;52.032;4.376;2022-07-23T04:32:27;8.80;;;3.40;;
70052;SDS011;57398;52.032;4.376;2022-07-23T04:34:56;8.18;;;3.50;;
70052;SDS011;57398;52.032;4.376;2022-07-23T04:37:23;7.10;;;3.40;;
70052;SDS011;57398;52.032;4.376;2022-07-23T04:39:51;9.03;;;3.20;;
70052;SDS011;57398;52.032;4.376;2022-07-23T04:42:18;8.27;;;3.47;;
70052;SDS011;57398;52.032;4.376;2022-07-23T04:44:46;7.90;;;3.45;;
70052;SDS011;57398;52.032;4.376;2022-07-23T04:47:13;7.68;;;3.30;;
70052;SDS011;57398;52.032;4.376;2022-07-23T04:49:41;7.50;;;3.33;;
70052;SDS011;57398;52.032;4.376;2022-07-23T04:52:10;8.10;;;3.70;;
70052;SDS011;57398;52.032;4.376;2022-07-23T04:54:37;10.57;;;3.45;;
70052;SDS011;57398;52.032;4.376;2022-07-23T04:57:05;7.72;;;3.75;;
70052;SDS011;57398;52.032;4.376;2022-07-23T04:59:32;9.38;;;3.50;;
70052;SDS011;57398;52.032;4.376;2022-07-23T05:02:00;7.75;;;3.60;;
70052;SDS011;57398;52.032;4.376;2022-07-23T05:04:27;8.13;;;3.57;;
70052;SDS011;57398;52.032;4.376;2022-07-23T05:06:55;6.53;;;3.30;;
70052;SDS011;57398;52.032;4.376;2022-07-23T05:09:24;7.90;;;3.40;;
70052;SDS011;57398;52.032;4.376;2022-07-23T05:11:51;6.65;;;3.28;;
70052;SDS011;57398;52.032;4.376;2022-07-23T05:14:19;8.15;;;3.20;;
70052;SDS011;57398;52.032;4.376;2022-07-23T05:16:46;7.37;;;3.60;;
70052;SDS011;57398;52.032;4.376;2022-07-23T05:19:14;8.73;;;3.58;;
70052;SDS011;57398;52.032;4.376;2022-07-23T05:21:41;10.52;;;3.72;;
70052;SDS011;57398;52.032;4.376;2022-07-23T05:24:09;7.88;;;3.35;;
70052;SDS011;57398;52.032;4.376;2022-07-23T05:26:38;10.07;;;4.10;;
70052;SDS011;57398;52.032;4.376;2022-07-23T05:29:05;8.03;;;3.67;;
70052;SDS011;57398;52.032;4.376;2022-07-23T05:31:33;7.75;;;3.55;;
70052;SDS011;57398;52.032;4.376;2022-07-23T05:34:01;6.47;;;3.10;;
70052;SDS011;57398;52.032;4.376;2022-07-23T05:36:28;10.23;;;3.05;;
70052;SDS011;57398;52.032;4.376;2022-07-23T05:38:56;7.55;;;3.20;;
70052;SDS011;57398;52.032;4.376;2022-07-23T05:41:25;7.33;;;3.00;;
70052;SDS011;57398;52.032;4.376;2022-07-23T05:43:54;7.85;;;2.97;;
70052;SDS011;57398;52.032;4.376;2022-07-23T05:46:21;8.07;;;2.67;;
70052;SDS011;57398;52.032;4.376;2022-07-23T05:48:49;6.65;;;2.45;;
70052;SDS011;57398;52.032;4.376;2022-07-23T05:51:19;6.53;;;2.20;;
70052;SDS011;57398;52.032;4.376;2022-07-23T05:53:46;4.97;;;2.37;;
70052;SDS011;57398;52.032;4.376;2022-07-23T05:56:14;6.50;;;2.50;;
70052;SDS011;57398;52.032;4.376;2022-07-23T05:58:42;5.72;;;2.25;;
70052;SDS011;57398;52.032;4.376;2022-07-23T06:01:10;4.68;;;2.05;;
70052;SDS011;57398;52.032;4.376;2022-07-23T06:03:38;10.98;;;2.60;;
70052;SDS011;57398;52.032;4.376;2022-07-23T06:06:06;5.60;;;2.30;;
70052;SDS011;57398;52.032;4.376;2022-07-23T06:08:34;8.80;;;2.33;;
70052;SDS011;57398;52.032;4.376;2022-07-23T06:11:01;5.63;;;2.53;;
70052;SDS011;57398;52.032;4.376;2022-07-23T06:13:29;6.07;;;2.50;;
70052;SDS011;57398;52.032;4.376;2022-07-23T06:15:56;6.88;;;2.50;;
70052;SDS011;57398;52.032;4.376;2022-07-23T06:18:25;6.67;;;2.20;;
70052;SDS011;57398;52.032;4.376;2022-07-23T06:20:52;8.40;;;2.70;;
70052;SDS011;57398;52.032;4.376;2022-07-23T06:23:25;6.00;;;2.47;;
70052;SDS011;57398;52.032;4.376;2022-07-23T06:25:53;6.18;;;2.38;;
70052;SDS011;57398;52.032;4.376;2022-07-23T06:28:20;5.55;;;2.50;;
70052;SDS011;57398;52.032;4.376;2022-07-23T06:30:48;6.77;;;2.73;;
70052;SDS011;57398;52.032;4.376;2022-07-23T06:33:15;6.70;;;2.67;;
70052;SDS011;57398;52.032;4.376;2022-07-23T06:35:44;7.07;;;2.88;;
70052;SDS011;57398;52.032;4.376;2022-07-23T06:38:12;7.25;;;2.50;;
70052;SDS011;57398;52.032;4.376;2022-07-23T06:40:40;6.72;;;2.40;;
70052;SDS011;57398;52.032;4.376;2022-07-23T06:43:08;5.60;;;2.00;;
70052;SDS011;57398;52.032;4.376;2022-07-23T06:45:35;6.95;;;2.10;;
70052;SDS011;57398;52.032;4.376;2022-07-23T06:48:03;5.25;;;2.17;;
70052;SDS011;57398;52.032;4.376;2022-07-23T06:50:30;5.32;;;2.20;;
70052;SDS011;57398;52.032;4.376;2022-07-23T06:52:59;7.57;;;2.45;;
70052;SDS011;57398;52.032;4.376;2022-07-23T06:55:27;4.60;;;2.10;;
70052;SDS011;57398;52.032;4.376;2022-07-23T06:57:54;4.82;;;1.98;;
70052;SDS011;57398;52.032;4.376;2022-07-23T07:00:22;5.47;;;1.80;;
70052;SDS011;57398;52.032;4.376;2022-07-23T07:02:53;4.50;;;2.20;;
70052;SDS011;57398;52.032;4.376;2022-07-23T07:05:20;6.32;;;2.20;;
70052;SDS011;57398;52.032;4.376;2022-07-23T07:07:49;5.27;;;2.10;;
70052;SDS011;57398;52.032;4.376;2022-07-23T07:10:18;5.53;;;1.80;;
70052;SDS011;57398;52.032;4.376;2022-07-23T07:12:45;6.25;;;2.00;;
70052;SDS011;57398;52.032;4.376;2022-07-23T07:15:13;6.82;;;2.08;;
70052;SDS011;57398;52.032;4.376;2022-07-23T07:17:40;5.18;;;1.80;;
70052;SDS011;57398;52.032;4.376;2022-07-23T07:20:09;5.67;;;2.00;;
70052;SDS011;57398;52.032;4.376;2022-07-23T07:22:37;6.40;;;1.90;;
70052;SDS011;57398;52.032;4.376;2022-07-23T07:25:05;6.75;;;2.10;;
70052;SDS011;57398;52.032;4.376;2022-07-23T07:27:34;4.95;;;1.92;;
70052;SDS011;57398;52.032;4.376;2022-07-23T07:30:04;5.30;;;2.20;;
70052;SDS011;57398;52.032;4.376;2022-07-23T07:32:32;6.13;;;2.27;;
70052;SDS011;57398;52.032;4.376;2022-07-23T07:35:20;4.90;;;2.05;;
70052;SDS011;57398;52.032;4.376;2022-07-23T07:37:47;5.28;;;2.00;;
70052;SDS011;57398;52.032;4.376;2022-07-23T07:40:14;6.25;;;2.05;;
70052;SDS011;57398;52.032;4.376;2022-07-23T07:42:46;4.90;;;2.15;;
70052;SDS011;57398;52.032;4.376;2022-07-23T07:45:14;5.57;;;2.40;;
70052;SDS011;57398;52.032;4.376;2022-07-23T07:47:42;6.82;;;2.30;;
70052;SDS011;57398;52.032;4.376;2022-07-23T07:50:09;6.00;;;2.60;;
70052;SDS011;57398;52.032;4.376;2022-07-23T07:52:37;7.15;;;2.08;;
70052;SDS011;57398;52.032;4.376;2022-07-23T07:55:06;5.38;;;2.08;;
70052;SDS011;57398;52.032;4.376;2022-07-23T07:57:34;5.47;;;2.30;;
70052;SDS011;57398;52.032;4.376;2022-07-23T08:00:04;5.60;;;2.00;;
70052;SDS011;57398;52.032;4.376;2022-07-23T08:02:39;6.10;;;2.10;;
70052;SDS011;57398;52.032;4.376;2022-07-23T08:05:06;5.95;;;2.00;;
70052;SDS011;57398;52.032;4.376;2022-07-23T08:07:34;4.72;;;1.85;;
70052;SDS011;57398;52.032;4.376;2022-07-23T08:10:05;4.77;;;1.83;;
70052;SDS011;57398;52.032;4.376;2022-07-23T08:15:21;7.85;;;2.05;;
70052;SDS011;57398;52.032;4.376;2022-07-23T08:17:49;5.43;;;2.03;;
70052;SDS011;57398;52.032;4.376;2022-07-23T08:20:18;6.30;;;2.20;;
70052;SDS011;57398;52.032;4.376;2022-07-23T08:22:47;4.43;;;1.80;;
70052;SDS011;57398;52.032;4.376;2022-07-23T08:25:15;5.05;;;2.08;;
70052;SDS011;57398;52.032;4.376;2022-07-23T08:27:42;5.07;;;2.00;;
70052;SDS011;57398;52.032;4.376;2022-07-23T08:30:10;4.55;;;2.10;;
70052;SDS011;57398;52.032;4.376;2022-07-23T08:32:49;5.03;;;2.00;;
70052;SDS011;57398;52.032;4.376;2022-07-23T08:35:16;4.63;;;1.57;;
70052;SDS011;57398;52.032;4.376;2022-07-23T08:37:44;5.18;;;1.63;;
70052;SDS011;57398;52.032;4.376;2022-07-23T08:40:11;9.27;;;1.77;;
70052;SDS011;57398;52.032;4.376;2022-07-23T08:42:39;4.82;;;1.30;;
70052;SDS011;57398;52.032;4.376;2022-07-23T08:45:07;4.85;;;1.58;;
70052;SDS011;57398;52.032;4.376;2022-07-23T08:47:35;6.13;;;1.60;;
70052;SDS011;57398;52.032;4.376;2022-07-23T08:50:05;4.95;;;1.75;;
70052;SDS011;57398;52.032;4.376;2022-07-23T08:52:34;5.63;;;1.70;;
70052;SDS011;57398;52.032;4.376;2022-07-23T08:55:03;5.88;;;1.70;;
70052;SDS011;57398;52.032;4.376;2022-07-23T08:57:31;6.45;;;1.90;;
70052;SDS011;57398;52.032;4.376;2022-07-23T08:59:58;5.10;;;1.50;;
70052;SDS011;57398;52.032;4.376;2022-07-23T09:02:26;5.57;;;1.73;;
70052;SDS011;57398;52.032;4.376;2022-07-23T09:04:53;5.22;;;1.90;;
70052;SDS011;57398;52.032;4.376;2022-07-23T09:07:22;4.60;;;1.67;;
70052;SDS011;57398;52.032;4.376;2022-07-23T09:09:57;6.25;;;1.83;;
70052;SDS011;57398;52.032;4.376;2022-07-23T09:12:31;7.10;;;2.40;;
70052;SDS011;57398;52.032;4.376;2022-07-23T09:15:03;4.53;;;2.10;;
70052;SDS011;57398;52.032;4.376;2022-07-23T09:17:36;3.58;;;1.65;;
70052;SDS011;57398;52.032;4.376;2022-07-23T09:20:10;4.45;;;1.73;;
70052;SDS011;57398;52.032;4.376;2022-07-23T09:22:41;4.88;;;1.60;;
70052;SDS011;57398;52.032;4.376;2022-07-23T09:25:12;3.70;;;1.70;;
70052;SDS011;57398;52.032;4.376;2022-07-23T09:27:51;4.43;;;1.50;;
70052;SDS011;57398;52.032;4.376;2022-07-23T09:30:21;5.10;;;1.90;;
70052;SDS011;57398;52.032;4.376;2022-07-23T09:33:05;4.10;;;1.55;;
70052;SDS011;57398;52.032;4.376;2022-07-23T09:35:42;4.63;;;1.70;;
70052;SDS011;57398;52.032;4.376;2022-07-23T09:38:11;4.97;;;1.50;;
70052;SDS011;57398;52.032;4.376;2022-07-23T09:40:40;5.55;;;1.45;;
70052;SDS011;57398;52.032;4.376;2022-07-23T09:43:07;4.82;;;1.50;;
70052;SDS011;57398;52.032;4.376;2022-07-23T09:45:35;5.38;;;1.70;;
70052;SDS011;57398;52.032;4.376;2022-07-23T09:48:12;3.10;;;1.20;;
70052;SDS011;57398;52.032;4.376;2022-07-23T09:50:40;4.33;;;1.60;;
70052;SDS011;57398;52.032;4.376;2022-07-23T09:53:08;4.57;;;1.50;;
70052;SDS011;57398;52.032;4.376;2022-07-23T09:55:37;3.83;;;1.40;;
70052;SDS011;57398;52.032;4.376;2022-07-23T09:58:05;4.35;;;1.50;;
70052;SDS011;57398;52.032;4.376;2022-07-23T10:00:35;3.95;;;1.50;;
70052;SDS011;57398;52.032;4.376;2022-07-23T10:03:03;4.40;;;1.30;;
70052;SDS011;57398;52.032;4.376;2022-07-23T10:05:32;4.53;;;1.50;;
70052;SDS011;57398;52.032;4.376;2022-07-23T10:08:01;4.93;;;1.60;;
70052;SDS011;57398;52.032;4.376;2022-07-23T10:10:29;4.25;;;1.65;;
70052;SDS011;57398;52.032;4.376;2022-07-23T10:12:59;4.75;;;2.00;;
70052;SDS011;57398;52.032;4.376;2022-07-23T10:15:54;4.57;;;1.90;;
70052;SDS011;57398;52.032;4.376;2022-07-23T10:18:22;4.55;;;1.60;;
70052;SDS011;57398;52.032;4.376;2022-07-23T10:20:50;4.57;;;1.92;;
70052;SDS011;57398;52.032;4.376;2022-07-23T10:23:19;4.50;;;1.90;;
70052;SDS011;57398;52.032;4.376;2022-07-23T10:25:51;4.60;;;1.70;;
70052;SDS011;57398;52.032;4.376;2022-07-23T10:28:39;4.30;;;1.80;;
70052;SDS011;57398;52.032;4.376;2022-07-23T10:31:10;4.85;;;1.67;;
70052;SDS011;57398;52.032;4.376;2022-07-23T10:34:06;4.32;;;1.83;;
70052;SDS011;57398;52.032;4.376;2022-07-23T10:36:37;4.43;;;1.80;;
70052;SDS011;57398;52.032;4.376;2022-07-23T10:39:10;5.20;;;2.00;;
70052;SDS011;57398;52.032;4.376;2022-07-23T10:41:41;3.70;;;1.60;;
70052;SDS011;57398;52.032;4.376;2022-07-23T10:44:11;5.85;;;1.60;;
70052;SDS011;57398;52.032;4.376;2022-07-23T10:49:40;3.75;;;1.48;;
70052;SDS011;57398;52.032;4.376;2022-07-23T10:57:47;3.65;;;1.50;;
70052;SDS011;57398;52.032;4.376;2022-07-23T11:00:19;3.88;;;1.55;;
70052;SDS011;57398;52.032;4.376;2022-07-23T11:02:48;7.40;;;1.88;;
70052;SDS011;57398;52.032;4.376;2022-07-23T11:05:17;3.75;;;1.55;;
70052;SDS011;57398;52.032;4.376;2022-07-23T11:10:33;4.57;;;1.48;;
70052;SDS011;57398;52.032;4.376;2022-07-23T11:24:12;5.72;;;2.13;;
70052;SDS011;57398;52.032;4.376;2022-07-23T11:26:41;5.00;;;2.00;;
70052;SDS011;57398;52.032;4.376;2022-07-23T11:31:59;5.85;;;1.88;;
70052;SDS011;57398;52.032;4.376;2022-07-23T11:34:29;3.90;;;1.60;;
70052;SDS011;57398;52.032;4.376;2022-07-23T11:36:57;4.30;;;1.50;;
70052;SDS011;57398;52.032;4.376;2022-07-23T11:39:27;4.57;;;1.80;;
70052;SDS011;57398;52.032;4.376;2022-07-23T11:41:55;4.20;;;1.88;;
70052;SDS011;57398;52.032;4.376;2022-07-23T11:44:26;6.38;;;3.33;;
70052;SDS011;57398;52.032;4.376;2022-07-23T11:46:56;4.10;;;2.00;;
70052;SDS011;57398;52.032;4.376;2022-07-23T11:49:25;6.65;;;3.00;;
70052;SDS011;57398;52.032;4.376;2022-07-23T11:52:02;7.03;;;3.60;;
70052;SDS011;57398;52.032;4.376;2022-07-23T11:54:32;5.10;;;1.95;;
70052;SDS011;57398;52.032;4.376;2022-07-23T11:57:05;4.15;;;1.92;;
70052;SDS011;57398;52.032;4.376;2022-07-23T11:59:33;4.63;;;1.67;;
70052;SDS011;57398;52.032;4.376;2022-07-23T12:02:01;4.03;;;1.60;;
70052;SDS011;57398;52.032;4.376;2022-07-23T12:04:36;4.30;;;1.40;;
70052;SDS011;57398;52.032;4.376;2022-07-23T12:07:04;4.65;;;1.80;;
70052;SDS011;57398;52.032;4.376;2022-07-23T12:09:50;4.90;;;2.30;;
70052;SDS011;57398;52.032;4.376;2022-07-23T12:12:18;5.50;;;3.73;;
70052;SDS011;57398;52.032;4.376;2022-07-23T12:14:49;5.00;;;2.50;;
70052;SDS011;57398;52.032;4.376;2022-07-23T12:17:17;4.22;;;1.95;;
70052;SDS011;57398;52.032;4.376;2022-07-23T12:19:45;4.30;;;1.90;;
70052;SDS011;57398;52.032;4.376;2022-07-23T12:22:14;7.32;;;5.90;;
70052;SDS011;57398;52.032;4.376;2022-07-23T12:24:53;4.73;;;1.97;;
70052;SDS011;57398;52.032;4.376;2022-07-23T12:27:21;4.25;;;1.90;;
70052;SDS011;57398;52.032;4.376;2022-07-23T12:29:49;4.45;;;1.80;;
70052;SDS011;57398;52.032;4.376;2022-07-23T12:32:20;4.30;;;1.67;;
70052;SDS011;57398;52.032;4.376;2022-07-23T12:34:49;5.10;;;1.70;;
70052;SDS011;57398;52.032;4.376;2022-07-23T12:37:26;7.13;;;4.93;;
70052;SDS011;57398;52.032;4.376;2022-07-23T12:39:56;5.97;;;3.10;;
70052;SDS011;57398;52.032;4.376;2022-07-23T12:42:23;8.52;;;5.85;;
70052;SDS011;57398;52.032;4.376;2022-07-23T12:45:04;6.00;;;4.03;;
70052;SDS011;57398;52.032;4.376;2022-07-23T12:53:01;7.90;;;4.20;;
70052;SDS011;57398;52.032;4.376;2022-07-23T12:55:31;5.72;;;2.38;;
70052;SDS011;57398;52.032;4.376;2022-07-23T12:58:19;7.35;;;2.65;;
70052;SDS011;57398;52.032;4.376;2022-07-23T13:00:49;5.40;;;2.10;;
70052;SDS011;57398;52.032;4.376;2022-07-23T13:03:21;5.37;;;2.30;;
70052;SDS011;57398;52.032;4.376;2022-07-23T13:05:49;5.05;;;2.47;;
70052;SDS011;57398;52.032;4.376;2022-07-23T13:08:17;5.88;;;2.30;;
70052;SDS011;57398;52.032;4.376;2022-07-23T13:10:47;6.28;;;2.20;;
70052;SDS011;57398;52.032;4.376;2022-07-23T13:13:17;5.43;;;2.25;;
70052;SDS011;57398;52.032;4.376;2022-07-23T13:15:46;5.80;;;2.30;;
70052;SDS011;57398;52.032;4.376;2022-07-23T13:18:14;4.95;;;2.60;;
70052;SDS011;57398;52.032;4.376;2022-07-23T13:20:46;8.02;;;2.90;;
70052;SDS011;57398;52.032;4.376;2022-07-23T13:23:15;4.78;;;2.38;;
70052;SDS011;57398;52.032;4.376;2022-07-23T13:25:43;9.25;;;3.25;;
70052;SDS011;57398;52.032;4.376;2022-07-23T13:28:12;6.10;;;2.60;;
70052;SDS011;57398;52.032;4.376;2022-07-23T13:30:44;5.47;;;2.50;;
70052;SDS011;57398;52.032;4.376;2022-07-23T13:33:12;7.80;;;2.42;;
70052;SDS011;57398;52.032;4.376;2022-07-23T13:35:40;6.20;;;2.50;;
70052;SDS011;57398;52.032;4.376;2022-07-23T13:38:10;7.22;;;2.80;;
70052;SDS011;57398;52.032;4.376;2022-07-23T13:40:38;6.70;;;2.97;;
70052;SDS011;57398;52.032;4.376;2022-07-23T13:43:06;5.57;;;2.60;;
70052;SDS011;57398;52.032;4.376;2022-07-23T13:45:35;6.70;;;2.60;;
70052;SDS011;57398;52.032;4.376;2022-07-23T13:48:04;5.75;;;2.90;;
70052;SDS011;57398;52.032;4.376;2022-07-23T13:50:32;7.32;;;2.60;;
70052;SDS011;57398;52.032;4.376;2022-07-23T13:53:01;7.13;;;2.80;;
70052;SDS011;57398;52.032;4.376;2022-07-23T13:55:29;6.05;;;2.50;;
70052;SDS011;57398;52.032;4.376;2022-07-23T13:57:57;5.28;;;2.70;;
70052;SDS011;57398;52.032;4.376;2022-07-23T14:00:25;8.85;;;2.90;;
70052;SDS011;57398;52.032;4.376;2022-07-23T14:03:15;6.10;;;3.03;;
70052;SDS011;57398;52.032;4.376;2022-07-23T14:05:43;8.07;;;2.90;;
70052;SDS011;57398;52.032;4.376;2022-07-23T14:08:11;6.15;;;3.03;;
70052;SDS011;57398;52.032;4.376;2022-07-23T14:10:40;6.03;;;2.90;;
70052;SDS011;57398;52.032;4.376;2022-07-23T14:13:08;6.25;;;3.00;;
70052;SDS011;57398;52.032;4.376;2022-07-23T14:15:36;6.55;;;2.72;;
70052;SDS011;57398;52.032;4.376;2022-07-23T14:18:06;5.73;;;2.60;;
70052;SDS011;57398;52.032;4.376;2022-07-23T14:20:35;5.95;;;2.92;;
70052;SDS011;57398;52.032;4.376;2022-07-23T14:23:03;6.55;;;2.90;;
70052;SDS011;57398;52.032;4.376;2022-07-23T14:25:31;6.10;;;3.13;;
70052;SDS011;57398;52.032;4.376;2022-07-23T14:27:59;6.50;;;3.20;;
70052;SDS011;57398;52.032;4.376;2022-07-23T14:30:27;6.90;;;2.63;;
70052;SDS011;57398;52.032;4.376;2022-07-23T14:33:00;6.22;;;2.60;;
70052;SDS011;57398;52.032;4.376;2022-07-23T14:35:28;5.15;;;2.65;;
70052;SDS011;57398;52.032;4.376;2022-07-23T14:37:57;6.32;;;2.70;;
70052;SDS011;57398;52.032;4.376;2022-07-23T14:40:24;6.80;;;2.97;;
70052;SDS011;57398;52.032;4.376;2022-07-23T14:42:54;5.60;;;2.70;;
70052;SDS011;57398;52.032;4.376;2022-07-23T14:45:22;7.68;;;2.95;;
70052;SDS011;57398;52.032;4.376;2022-07-23T14:47:49;6.18;;;3.17;;
70052;SDS011;57398;52.032;4.376;2022-07-23T14:50:17;6.82;;;3.22;;
70052;SDS011;57398;52.032;4.376;2022-07-23T14:52:44;8.32;;;2.80;;
70052;SDS011;57398;52.032;4.376;2022-07-23T14:55:16;8.67;;;2.90;;
70052;SDS011;57398;52.032;4.376;2022-07-23T14:57:45;6.07;;;3.00;;
70052;SDS011;57398;52.032;4.376;2022-07-23T15:00:13;6.00;;;3.15;;
70052;SDS011;57398;52.032;4.376;2022-07-23T15:02:41;8.02;;;3.15;;
70052;SDS011;57398;52.032;4.376;2022-07-23T15:05:18;5.63;;;2.60;;
70052;SDS011;57398;52.032;4.376;2022-07-23T15:07:46;5.40;;;2.50;;
70052;SDS011;57398;52.032;4.376;2022-07-23T15:10:16;5.95;;;2.80;;
70052;SDS011;57398;52.032;4.376;2022-07-23T15:12:47;9.45;;;3.13;;
70052;SDS011;57398;52.032;4.376;2022-07-23T15:15:15;8.00;;;3.03;;
70052;SDS011;57398;52.032;4.376;2022-07-23T15:17:43;8.40;;;3.08;;
70052;SDS011;57398;52.032;4.376;2022-07-23T15:20:11;6.93;;;2.80;;
70052;SDS011;57398;52.032;4.376;2022-07-23T15:22:42;6.55;;;3.08;;
70052;SDS011;57398;52.032;4.376;2022-07-23T15:25:15;5.63;;;2.65;;
70052;SDS011;57398;52.032;4.376;2022-07-23T15:27:43;6.30;;;2.85;;
70052;SDS011;57398;52.032;4.376;2022-07-23T15:30:11;7.50;;;2.72;;
70052;SDS011;57398;52.032;4.376;2022-07-23T15:32:40;6.13;;;2.60;;